Billet, Illinois
Current Conditions -  °F | °C
As of 6:53 AM on Friday 31 Oct 2014 (Local Time) from KLWV Reporting Station
Overcast Overcast  
Wind Chill: 42°   Ceiling: 8000
Heat Index: 46°   Visibility: 7mi
Dew Point: 44°   Wind: 8mph
Humidity: 93%   Direction: 300°WNW
Pressure: 30.06"   Gusts: NA
Location:  38.7501°N, 87.6141°W
Report Text: KLWV 311153Z AUTO 30007KT 7SM BKN080 OVC110 08/07 A3006 RMK AO2 SLP178 60002 70009 T00780067 10083 20078 51008 $
Loading
Personal Weather Stations






























Interactive Weather Map
Tropical Storm Tracking
New forecast layout! Learn more

10-Day Weather Forecast

Advertisements
Track Severe Weather on mobile